Latest Weather Observations for Fortescue Dave Forrest

IDW60801

Issued at 4:03 am WST Wednesday 20 November 2019 (issued every 10 minutes, with the page automatically refreshed every 10 minutes)

About weather observations | Map of weather stations | Latest weather observations for WA | Other Formats
Station Details ID: 505056 Name: FORTESCUE DAVE FORREST Lat: -22.29 Lon: 119.43 Height: 474.6 m
Data from the previous 72 hours. | See also: Recent months for locations in Western Australia
Date/Time
WST
Temp
°C
App
Temp
°C
Dew
Point
°C
Rel
Hum
%
Delta-T
°C
Wind Press
QNH
hPa
Press
MSL
hPa
Rain since
9am
mm
Dir  Spd
km/h
Gust
km/h
Spd
kts
Gust
kts
20/04:00am 26.7 26.1 16.6 54 6.4 NW 15 19 8 10 1008.9 1005.4 0.0
20/03:30am 27.1 26.7 16.1 51 6.9 NW 13 19 7 10 1008.6 1005.1 0.0
20/03:00am 28.0 26.1 14.3 43 8.4 WNW 17 24 9 13 1008.6 1005.1 0.0
20/02:30am 29.5 26.6 11.1 32 10.8 WNW 17 22 9 12 1008.5 1005.0 0.0
20/02:00am 29.4 26.8 11.9 34 10.4 WNW 17 24 9 13 1008.5 1005.0 0.0
20/01:30am 29.5 26.6 12.4 35 10.2 WNW 19 24 10 13 1008.7 1005.2 0.0
20/01:00am 29.8 26.6 11.8 33 10.7 WNW 20 26 11 14 1009.1 1005.5 0.0
20/12:30am 29.9 27.0 10.9 31 11.1 WNW 17 24 9 13 1009.4 1005.8 0.0
20/12:00am 30.1 26.9 10.1 29 11.6 WNW 17 22 9 12 1009.6 1006.0 0.0
 
Date/Time
WST
Temp
°C
App
Temp
°C
Dew
Point
°C
Rel
Hum
%
Delta-T
°C
Wind Press
QNH
hPa
Press
MSL
hPa
Rain since
9am
mm
Dir  Spd
km/h
Gust
km/h
Spd
kts
Gust
kts
19/11:30pm 30.5 26.9 10.5 29 11.7 NW 20 32 11 17 1009.7 1006.1 0.0
19/11:00pm 31.0 26.5 8.7 25 12.7 NW 22 30 12 16 1009.8 1006.3 0.0
19/10:30pm 31.5 25.4 6.5 21 13.7 NW 28 35 15 19 1010.1 1006.6 0.0
19/10:00pm 31.7 26.1 8.7 24 13.1 NW 28 39 15 21 1010.2 1006.7 0.0
19/09:30pm 32.4 26.9 9.2 24 13.4 NW 28 37 15 20 1010.1 1006.6 0.0
19/09:00pm 33.7 27.7 6.9 19 15.0 NW 28 41 15 22 1009.8 1006.3 0.0
19/08:30pm 34.8 27.7 3.4 14 16.7 WNW 30 43 16 23 1009.6 1006.0 0.0
19/08:00pm 35.4 28.0 1.7 12 17.5 NW 30 44 16 24 1009.3 1005.7 0.0
19/07:30pm 35.9 28.9 2.1 12 17.7 NW 28 39 15 21 1008.8 1005.3 0.0
19/07:00pm 36.7 30.0 1.5 11 18.4 NW 26 35 14 19 1008.5 1005.0 0.0
19/06:30pm 37.3 30.7 1.9 11 18.6 NW 26 35 14 19 1008.1 1004.6 0.0
19/06:00pm 37.9 31.7 2.4 11 19.0 NW 24 33 13 18 1007.8 1004.3 0.0
19/05:30pm 37.9 32.1 2.4 11 18.9 N 22 35 12 19 1007.7 1004.1 0.0
19/05:00pm 37.7 30.7 2.2 11 18.9 NE 28 44 15 24 1007.4 1003.8 0.0
19/04:30pm 38.2 31.7 2.6 11 19.0 NNE 26 41 14 22 1007.3 1003.7 0.0
19/04:05pm 38.2 31.1 1.3 10 19.4 NNW 28 61 15 33 1007.3 1003.7 0.0
19/04:02pm 38.3 30.1 2.7 11 19.1 WNW 35 61 19 33 1007.0 1003.4 0.0
19/04:00pm 38.1 29.5 2.5 11 19.1 WNW 37 61 20 33 1007.4 1003.8 0.0
19/03:54pm 38.1 28.6 3.8 12 18.7 WNW 43 61 23 33 1006.9 1003.3 0.0
19/03:46pm 39.8 33.7 2.5 10 20.1 NW 24 56 13 30 1006.8 1003.2 0.0
19/03:30pm 39.9 34.5 2.5 10 20.2 NNW 20 35 11 19 1006.8 1003.2 0.0
19/03:00pm 40.4 34.8 -0.2 8 21.1 NW 19 32 10 17 1007.0 1003.4 0.0
19/02:30pm 40.9 34.4 0.2 8 21.3 NW 24 43 13 23 1007.1 1003.5 0.0
19/02:00pm 41.0 34.0 1.9 9 21.1 NNW 28 44 15 24 1007.3 1003.7 0.0
19/01:30pm 41.0 34.5 0.3 8 21.4 NNW 24 46 13 25 1007.7 1004.1 0.0
19/01:28pm 41.2 34.7 0.4 8 21.5 NNW 24 46 13 25 1007.7 1004.1 0.0
19/01:00pm 40.8 34.7 0.1 8 21.3 NNW 22 48 12 26 1008.1 1004.6 0.0
19/12:30pm 40.8 34.8 -1.7 7 21.6 WNW 20 33 11 18 1008.3 1004.8 0.0
19/12:00pm 40.5 34.6 1.5 9 20.8 NW 22 35 12 19 1008.9 1005.4 0.0
19/11:30am 40.9 35.4 1.8 9 21.0 NNW 20 37 11 20 1009.3 1005.7 0.0
19/11:00am 39.7 33.5 2.4 10 20.1 NW 24 37 13 20 1009.6 1006.0 0.0
19/10:30am 39.1 33.1 3.3 11 19.5 NW 24 35 13 19 1010.3 1006.8 0.0
19/10:00am 38.5 33.2 2.8 11 19.2 NW 20 32 11 17 1010.6 1007.1 0.0
19/09:30am 37.4 32.1 2.0 11 18.7 WNW 19 30 10 16 1010.9 1007.4 0.0
19/09:00am 37.3 31.6 3.1 12 18.4 NW 22 30 12 16 1011.0 1007.5 0.0
19/08:30am 36.3 30.7 3.5 13 17.6 NW 22 32 12 17 1011.0 1007.5 0.0
19/08:00am 35.9 31.0 2.1 12 17.7 WNW 17 28 9 15 1011.0 1007.5 0.0
19/07:30am 34.5 29.1 1.0 12 17.1 NW 19 24 10 13 1010.7 1007.2 0.0
19/07:00am 32.4 28.2 -0.6 12 16.2 NW 11 17 6 9 1010.6 1007.1 0.0
19/06:30am 30.0 26.7 -1.4 13 15.0 N 6 9 3 5 1010.3 1006.8 0.0
19/06:00am 29.0 24.4 -1.2 14 14.4 NW 13 17 7 9 1010.1 1006.6 0.0
19/05:30am 27.9 23.3 -1.1 15 13.7 NW 13 17 7 9 1009.8 1006.3 0.0
19/05:00am 27.9 23.8 -0.2 16 13.5 NW 11 13 6 7 1009.7 1006.1 0.0
19/04:30am 29.0 24.5 -0.2 15 14.1 NW 13 19 7 10 1009.6 1006.0 0.0
19/04:00am 29.6 24.7 -0.7 14 14.6 W 15 19 8 10 1009.6 1006.0 0.0
19/03:30am 29.3 24.7 -0.9 14 14.5 WNW 13 17 7 9 1009.7 1006.1 0.0
19/03:00am 29.7 24.6 -1.6 13 14.9 WNW 15 19 8 10 1009.7 1006.1 0.0
19/02:30am 30.4 25.3 -2.2 12 15.4 W 15 20 8 11 1009.8 1006.3 0.0
19/02:00am 31.0 25.4 -2.9 11 15.9 WNW 17 22 9 12 1009.8 1006.3 0.0
19/01:30am 31.5 25.4 -2.5 11 16.1 WNW 20 26 11 14 1010.0 1006.5 0.0
19/01:00am 31.9 25.7 -3.5 10 16.5 WNW 20 30 11 16 1010.1 1006.6 0.0
19/12:30am 31.9 25.5 -4.9 9 16.8 WNW 20 28 11 15 1010.5 1007.0 0.0
19/12:00am 31.3 25.4 -5.3 9 16.5 WNW 17 20 9 11 1010.7 1007.2 0.0
 
Date/Time
WST
Temp
°C
App
Temp
°C
Dew
Point
°C
Rel
Hum
%
Delta-T
°C
Wind Press
QNH
hPa
Press
MSL
hPa
Rain since
9am
mm
Dir  Spd
km/h
Gust
km/h
Spd
kts
Gust
kts
18/11:30pm 31.8 25.8 -6.5 8 17.0 WNW 17 20 9 11 1011.0 1007.5 0.0
18/11:00pm 32.5 26.2 -4.4 9 17.0 WNW 20 30 11 16 1011.1 1007.6 0.0
18/10:30pm 32.9 25.8 -4.1 9 17.2 NW 24 33 13 18 1011.1 1007.6 0.0
18/10:00pm 33.4 26.5 -2.3 10 17.2 NW 24 33 13 18 1011.4 1007.8 0.0
18/09:47pm 33.9 26.9 -3.4 9 17.7 NNW 24 39 13 21 1011.4 1007.8 0.0
18/09:30pm 30.9 26.8 -7.1 8 16.5 N 7 7 4 4 1011.0 1007.5 0.0
18/09:00pm 32.3 28.3 -7.8 7 17.5 N 6 7 3 4 1010.8 1007.3 0.0
18/08:30pm 32.7 28.7 -7.6 7 17.7 NW 6 7 3 4 1010.8 1007.3 0.0
18/08:00pm 33.4 29.3 -7.0 7 18.0 N 7 9 4 5 1010.7 1007.2 0.0
18/07:30pm 36.6 31.7 -6.8 6 19.9 NNE 11 11 6 6 1010.6 1007.1 0.0
18/07:00pm 37.4 32.4 -8.5 5 20.6 NE 11 13 6 7 1010.4 1006.9 0.0
18/06:30pm 38.9 34.3 -7.5 5 21.4 ENE 9 15 5 8 1010.2 1006.7 0.0
18/06:00pm 40.1 34.9 -6.7 5 22.0 ENE 13 20 7 11 1010.1 1006.6 0.0
18/05:30pm 40.6 35.8 -6.3 5 22.2 NE 11 24 6 13 1009.8 1006.3 0.0
18/05:00pm 40.7 35.9 -6.3 5 22.3 E 11 24 6 13 1009.9 1006.4 0.0
18/04:30pm 41.0 35.4 -6.0 5 22.5 NE 15 22 8 12 1009.9 1006.4 0.0
18/04:00pm 42.1 37.1 -8.2 4 23.5 N 11 35 6 19 1010.0 1006.5 0.0
18/03:30pm 40.9 36.1 -6.1 5 22.4 NNE 11 26 6 14 1010.3 1006.8 0.0
18/03:00pm 41.5 36.0 -5.7 5 22.8 ENE 15 28 8 15 1010.4 1006.9 0.0
18/02:30pm 41.7 35.4 -5.6 5 22.8 ESE 19 35 10 19 1010.7 1007.2 0.0
18/02:00pm 41.4 34.9 -5.8 5 22.7 E 20 37 11 20 1011.3 1007.7 0.0
18/01:30pm 41.6 35.3 -5.6 5 22.8 ESE 19 30 10 16 1011.7 1008.2 0.0
18/01:00pm 40.7 34.4 -6.3 5 22.3 NE 19 30 10 16 1012.2 1008.7 0.0
18/12:30pm 40.5 34.0 -6.4 5 22.2 ENE 20 44 11 24 1012.8 1009.3 0.0
18/12:00pm 40.7 34.2 -6.3 5 22.3 E 20 39 11 21 1013.1 1009.6 0.0
18/11:30am 40.3 33.7 -6.5 5 22.1 NE 20 35 11 19 1013.7 1010.2 0.0
18/11:00am 40.6 33.7 -6.3 5 22.2 NE 22 44 12 24 1014.1 1010.6 0.0
18/10:30am 39.7 34.1 -6.9 5 21.8 NNE 15 30 8 16 1014.6 1011.1 0.0
18/10:00am 39.2 33.5 -7.3 5 21.5 NE 15 28 8 15 1014.9 1011.4 0.0
18/09:30am 38.9 33.6 -7.5 5 21.4 NNE 13 22 7 12 1015.3 1011.8 0.0
18/09:00am 38.1 32.3 -8.1 5 20.9 NE 15 22 8 12 1015.8 1012.3 0.0
18/08:30am 36.6 32.5 -3.0 8 19.2 E 9 15 5 8 1015.9 1012.4 0.0
18/08:00am 34.2 30.2 0.8 12 17.0 ESE 11 13 6 7 1015.7 1012.2 0.0
18/07:30am 33.1 29.9 1.0 13 16.3 SE 7 11 4 6 1015.5 1012.1 0.0
18/07:00am 31.4 28.9 1.7 15 15.1 ESE 4 6 2 3 1015.3 1011.8 0.0
18/06:30am 28.2 26.3 3.1 20 12.8 NE 2 6 1 3 1015.3 1011.8 0.0
18/06:00am 24.7 22.3 2.2 23 11.0 NW 4 4 2 2 1014.8 1011.3 0.0
18/05:30am 22.9 20.1 1.9 25 10.1 NW 6 7 3 4 1014.7 1011.2 0.0
18/05:00am 23.2 21.3 2.7 26 10.0 SSW 2 4 1 2 1014.7 1011.2 0.0
18/04:30am 24.8 22.1 2.9 24 10.9 ENE 6 6 3 3 1014.6 1011.1 0.0
18/04:00am 24.6 22.4 3.3 25 10.6 N 4 6 2 3 1014.3 1010.8 0.0
18/03:30am 24.3 22.3 2.5 24 10.7 N 2 4 1 2 1014.1 1010.6 0.0
18/03:00am 26.1 23.9 3.4 23 11.5 NW 4 6 2 3 1013.9 1010.4 0.0
18/02:30am 27.3 25.3 2.4 20 12.5 W 2 6 1 3 1013.9 1010.4 0.0
18/02:00am 28.4 25.6 3.3 20 12.8 WSW 7 9 4 5 1014.0 1010.5 0.0
18/01:30am 29.8 27.1 3.7 19 13.6 WSW 7 11 4 6 1014.3 1010.8 0.0
18/01:00am 30.8 27.9 1.2 15 14.8 WNW 6 11 3 6 1014.5 1011.0 0.0
18/12:30am 29.2 25.3 -6.9 9 15.5 NW 6 11 3 6 1014.8 1011.3 0.0
18/12:00am 30.8 25.7 -8.9 7 16.7 N 11 15 6 8 1015.0 1011.5 0.0
 
Date/Time
WST
Temp
°C
App
Temp
°C
Dew
Point
°C
Rel
Hum
%
Delta-T
°C
Wind Press
QNH
hPa
Press
MSL
hPa
Rain since
9am
mm
Dir  Spd
km/h
Gust
km/h
Spd
kts
Gust
kts
17/11:30pm 32.6 27.7 -7.6 7 17.6 NE 11 17 6 9 1015.2 1011.7 0.0
17/11:00pm 33.3 27.6 -7.1 7 17.9 ENE 15 19 8 10 1015.3 1011.8 0.0
17/10:30pm 32.5 26.8 -7.7 7 17.6 ENE 15 19 8 10 1015.7 1012.2 0.0
17/10:00pm 32.5 27.2 -7.7 7 17.5 E 13 15 7 8 1015.8 1012.3 0.0
17/09:30pm 33.4 27.7 -7.0 7 18.0 ENE 15 17 8 9 1015.7 1012.2 0.0
17/09:00pm 32.9 28.0 -7.4 7 17.7 ENE 11 15 6 8 1015.3 1011.8 0.0
17/08:30pm 31.5 28.0 -6.7 8 16.8 ENE 4 6 2 3 1015.2 1011.7 0.0
17/08:00pm 33.3 29.3 -7.1 7 17.9 ENE 6 7 3 4 1015.0 1011.5 0.0
17/07:30pm 34.4 30.3 -8.3 6 18.8 E 6 9 3 5 1014.7 1011.2 0.0
17/07:00pm 36.1 31.6 -7.1 6 19.6 ESE 9 13 5 7 1014.3 1010.8 0.0
17/06:30pm 38.6 32.5 -7.7 5 21.2 ESE 17 20 9 11 1013.9 1010.4 0.0
17/06:00pm 39.6 33.2 -7.0 5 21.7 ESE 19 26 10 14 1013.6 1010.1 0.0
17/05:30pm 40.0 33.4 -9.6 4 22.3 E 19 32 10 17 1013.2 1009.7 0.0
17/05:00pm 40.6 33.0 -9.2 4 22.6 E 24 35 13 19 1013.1 1009.6 0.0
17/04:30pm 40.6 34.4 -9.2 4 22.6 NE 17 30 9 16 1012.9 1009.4 0.0
17/04:00pm 41.5 35.3 -8.6 4 23.1 ENE 17 43 9 23 1013.0 1009.5 0.0
17/03:30pm 41.8 36.4 -8.4 4 23.3 ESE 13 32 7 17 1013.1 1009.6 0.0
17/03:00pm 41.5 32.5 -8.6 4 23.1 E 32 50 17 27 1013.3 1009.8 0.0
17/02:56pm 42.0 35.3 -8.2 4 23.4 ENE 20 50 11 27 1013.3 1009.8 0.0
17/02:30pm 41.3 32.6 -8.7 4 23.0 ENE 30 44 16 24 1013.8 1010.3 0.0
17/02:10pm 41.4 35.2 -8.7 4 23.1 E 17 44 9 24 1014.0 1010.5 0.0
17/02:00pm 41.1 33.6 -8.9 4 22.9 E 24 43 13 23 1014.1 1010.6 0.0
17/01:30pm 40.9 34.1 -9.0 4 22.8 E 20 33 11 18 1014.3 1010.8 0.0
17/01:00pm 40.8 33.3 -9.1 4 22.7 ENE 24 39 13 21 1014.6 1011.1 0.0
17/12:30pm 41.1 32.8 -8.9 4 22.9 NE 28 52 15 28 1015.1 1011.6 0.0
17/12:02pm 40.9 31.8 -9.0 4 22.8 ENE 32 50 17 27 1015.7 1012.2 0.0
17/12:00pm 40.5 31.4 -9.3 4 22.6 ENE 32 43 17 23 1015.7 1012.2 0.0
17/11:41am 40.8 30.8 -9.1 4 22.7 ENE 37 80 20 43 1015.7 1012.2 0.0
17/11:30am 40.6 30.6 -9.2 4 22.6 ENE 37 56 20 30 1016.1 1012.6 0.0
17/11:02am 40.2 29.4 -9.5 4 22.4 ENE 41 65 22 35 1016.3 1012.8 0.0
17/11:00am 40.0 28.8 -9.6 4 22.3 ENE 43 57 23 31 1016.4 1012.9 0.0
17/10:34am 40.4 30.0 -9.3 4 22.5 ENE 39 57 21 31 1016.5 1013.0 0.0
17/10:30am 39.6 28.4 -9.9 4 22.1 ENE 43 57 23 31 1016.8 1013.3 0.0
17/10:11am 39.7 28.5 -9.8 4 22.1 ENE 43 61 23 33 1016.8 1013.3 0.0
17/10:00am 39.5 27.3 -9.9 4 22.0 ENE 48 61 26 33 1016.9 1013.4 0.0
17/09:30am 38.5 25.5 -10.6 4 21.5 ENE 52 65 28 35 1017.0 1013.5 0.0
17/09:08am 38.5 25.9 -10.6 4 21.5 ENE 50 69 27 37 1016.9 1013.4 0.0
17/09:00am 38.1 25.1 -10.9 4 21.3 ENE 52 67 28 36 1016.9 1013.4 0.0
17/08:35am 37.8 24.8 -11.1 4 21.1 ENE 52 70 28 38 1016.8 1013.3 0.0
17/08:30am 37.5 23.7 -11.3 4 21.0 ENE 56 70 30 38 1016.7 1013.2 0.0
17/08:00am 36.9 25.6 -8.9 5 20.3 ENE 44 65 24 35 1016.4 1012.9 0.0
17/07:43am 36.3 24.6 -9.3 5 20.0 ENE 46 65 25 35 1016.4 1012.9 0.0
17/07:30am 35.7 24.5 -9.7 5 19.7 ENE 43 56 23 30 1016.4 1012.9 0.0
17/07:00am 34.7 25.7 -8.1 6 18.9 E 32 44 17 24 1016.3 1012.8 0.0
17/06:30am 33.0 25.1 -9.3 6 18.1 E 26 37 14 20 1015.9 1012.4 0.0
17/06:00am 30.8 24.0 -8.9 7 16.7 ESE 20 30 11 16 1015.7 1012.2 0.0
17/05:30am 30.3 23.1 -9.3 7 16.5 E 22 28 12 15 1015.3 1011.8 0.0
17/05:00am 30.6 23.4 -9.1 7 16.7 E 22 32 12 17 1014.9 1011.4 0.0
17/04:30am 31.1 23.1 -10.7 6 17.1 E 26 32 14 17 1014.7 1011.2 0.0

Other formats

Comma delimited format used in spreadsheet applications
http://www.bom.gov.au/fwo/IDW60801/IDW60801.99736.axf

JavaScript Object Notation format (JSON) in row-major order
http://www.bom.gov.au/fwo/IDW60801/IDW60801.99736.json

Data quality

Most of these data are generated automatically and are frequently updated. Quality checks on data are not normally performed. It is possible for incorrect values to appear. Refer to information at About Latest Weather Observations and please check the disclaimer before using these data.